Time;durP1;ratioP1;P1;durP2;ratioP2;P2;SDS_P1;SDS_P2;PMS_P1;PMS_P2;Temp;Humidity;BMP_temperature;BMP_pressure;BME280_temperature;BME280_humidity;BME280_pressure;Samples;Min_cycle;Max_cycle;Signal;HPM_P1;HPM_P2
2024/02/19 00:00:47;;;;;;;4.80;2.70;;;;;;;;;;5052021;28;20053;-61
2024/02/19 00:03:17;;;;;;;5.70;3.00;;;;;;;;;;5052399;28;20057;-60
2024/02/19 00:05:44;;;;;;;5.47;2.95;;;;;;;;;;5052004;28;20360;-61
2024/02/19 00:08:11;;;;;;;5.50;2.55;;;;;;;;;;5052356;28;20076;-61
2024/02/19 00:10:38;;;;;;;5.43;2.70;;;;;;;;;;5051823;28;20412;-61
2024/02/19 00:13:05;;;;;;;7.60;3.10;;;;;;;;;;5052224;28;20063;-60
2024/02/19 00:15:32;;;;;;;8.05;2.90;;;;;;;;;;5052270;28;20057;-60
2024/02/19 00:17:59;;;;;;;7.13;2.50;;;;;;;;;;5052241;28;20048;-60
2024/02/19 00:20:28;;;;;;;6.93;2.63;;;;;;;;;;5052188;28;20060;-61
2024/02/19 00:22:55;;;;;;;6.55;2.75;;;;;;;;;;5052477;28;20053;-62
2024/02/19 00:25:22;;;;;;;6.78;2.60;;;;;;;;;;5051833;28;20056;-61
2024/02/19 00:27:49;;;;;;;4.95;2.22;;;;;;;;;;5052384;28;20060;-61
2024/02/19 00:30:16;;;;;;;8.20;2.80;;;;;;;;;;5051841;28;20049;-61
2024/02/19 00:32:43;;;;;;;10.68;2.90;;;;;;;;;;5052095;28;20057;-61
2024/02/19 00:35:10;;;;;;;5.65;2.20;;;;;;;;;;5052105;28;20053;-60
2024/02/19 00:37:38;;;;;;;9.80;2.55;;;;;;;;;;5052351;28;20045;-61
2024/02/19 00:40:05;;;;;;;7.75;2.45;;;;;;;;;;5051728;28;20056;-61
2024/02/19 00:42:32;;;;;;;10.48;2.80;;;;;;;;;;5053109;28;20059;-61
2024/02/19 00:44:59;;;;;;;8.23;2.90;;;;;;;;;;5056055;28;20049;-61
2024/02/19 00:47:26;;;;;;;8.27;2.90;;;;;;;;;;5055899;28;20053;-61
2024/02/19 00:49:53;;;;;;;7.45;2.33;;;;;;;;;;5055918;28;20049;-60
2024/02/19 00:52:19;;;;;;;10.55;2.70;;;;;;;;;;5055980;28;20056;-61
2024/02/19 00:54:48;;;;;;;11.85;2.60;;;;;;;;;;5055765;28;20057;-61
2024/02/19 00:57:14;;;;;;;9.55;2.33;;;;;;;;;;5055841;28;20052;-61
2024/02/19 00:59:41;;;;;;;8.75;2.60;;;;;;;;;;5055499;28;20221;-61
2024/02/19 01:02:08;;;;;;;7.93;2.03;;;;;;;;;;5055886;28;20060;-61
2024/02/19 01:04:35;;;;;;;11.88;2.60;;;;;;;;;;5055755;28;20499;-61
2024/02/19 01:07:02;;;;;;;12.45;2.45;;;;;;;;;;5055724;28;20056;-61
2024/02/19 01:09:28;;;;;;;7.80;2.40;;;;;;;;;;5055543;28;20381;-60
2024/02/19 01:11:56;;;;;;;9.40;2.40;;;;;;;;;;5055427;28;20057;-60
2024/02/19 01:14:23;;;;;;;13.05;3.28;;;;;;;;;;5055248;28;20057;-61
2024/02/19 01:16:50;;;;;;;9.95;2.50;;;;;;;;;;5055172;28;20080;-60
2024/02/19 01:19:17;;;;;;;8.45;2.40;;;;;;;;;;5055073;28;20053;-60
2024/02/19 01:21:44;;;;;;;13.55;3.00;;;;;;;;;;5055420;28;20052;-61
2024/02/19 01:24:11;;;;;;;7.53;2.22;;;;;;;;;;5055198;28;20053;-61
2024/02/19 01:26:38;;;;;;;13.50;2.33;;;;;;;;;;5055348;28;20068;-61
2024/02/19 01:29:06;;;;;;;8.20;2.38;;;;;;;;;;5055120;28;20059;-60
2024/02/19 01:31:33;;;;;;;7.03;2.10;;;;;;;;;;5055012;28;20502;-61
2024/02/19 01:33:59;;;;;;;7.55;1.98;;;;;;;;;;5055151;28;20488;-61
2024/02/19 01:36:26;;;;;;;9.13;1.90;;;;;;;;;;5055105;28;20086;-61
2024/02/19 01:38:53;;;;;;;8.32;2.30;;;;;;;;;;5054907;28;20045;-61
2024/02/19 01:41:20;;;;;;;9.32;2.08;;;;;;;;;;5055120;28;20053;-60
2024/02/19 01:43:47;;;;;;;7.38;1.85;;;;;;;;;;5054753;28;20503;-60
2024/02/19 01:46:15;;;;;;;9.40;2.28;;;;;;;;;;5054488;28;20053;-60
2024/02/19 01:48:42;;;;;;;9.43;2.03;;;;;;;;;;5054713;28;20411;-60
2024/02/19 01:51:09;;;;;;;9.50;2.00;;;;;;;;;;5054564;28;20045;-60
2024/02/19 01:53:36;;;;;;;9.95;2.53;;;;;;;;;;5054027;28;20163;-61
2024/02/19 01:56:04;;;;;;;7.18;2.45;;;;;;;;;;5054717;28;20408;-61
2024/02/19 01:58:31;;;;;;;10.52;2.40;;;;;;;;;;5054690;28;20056;-60
2024/02/19 02:00:58;;;;;;;9.77;2.50;;;;;;;;;;5052090;28;20060;-60
2024/02/19 02:03:28;;;;;;;11.82;2.25;;;;;;;;;;5054408;28;20057;-60
2024/02/19 02:05:55;;;;;;;;;;;;;;;;;;5055308;28;20048;-60
2024/02/19 02:08:21;;;;;;;9.68;2.80;;;;;;;;;;5054514;28;20228;-60
2024/02/19 02:10:48;;;;;;;12.20;2.70;;;;;;;;;;5054096;28;20060;-60
2024/02/19 02:13:16;;;;;;;11.55;3.08;;;;;;;;;;5054245;28;20057;-60
2024/02/19 02:15:42;;;;;;;10.77;2.70;;;;;;;;;;5054044;28;20534;-61
2024/02/19 02:18:11;;;;;;;9.88;2.60;;;;;;;;;;5054281;28;20582;-61
2024/02/19 02:20:40;;;;;;;10.38;3.05;;;;;;;;;;5053857;28;20060;-61
2024/02/19 02:23:07;;;;;;;14.52;2.75;;;;;;;;;;5054208;28;20056;-61
2024/02/19 02:25:34;;;;;;;9.55;2.67;;;;;;;;;;5053691;28;20053;-62
2024/02/19 02:28:02;;;;;;;13.77;2.78;;;;;;;;;;5053885;28;20053;-61
2024/02/19 02:30:29;;;;;;;18.52;3.38;;;;;;;;;;5053908;28;20388;-61
2024/02/19 02:32:56;;;;;;;11.52;2.80;;;;;;;;;;5053341;28;20053;-61
2024/02/19 02:35:23;;;;;;;16.58;3.22;;;;;;;;;;5053330;28;20061;-61
2024/02/19 02:37:49;;;;;;;11.95;2.67;;;;;;;;;;5053965;28;20495;-61
2024/02/19 02:40:16;;;;;;;17.85;3.38;;;;;;;;;;5073750;28;20052;-61
2024/02/19 02:42:44;;;;;;;10.68;2.50;;;;;;;;;;5073864;28;20053;-61
2024/02/19 02:45:12;;;;;;;13.18;2.72;;;;;;;;;;5073403;28;20063;-61
2024/02/19 02:47:39;;;;;;;11.23;3.13;;;;;;;;;;5073671;28;20055;-61
2024/02/19 02:50:06;;;;;;;10.50;2.70;;;;;;;;;;5073552;28;20059;-61
2024/02/19 02:52:33;;;;;;;12.40;2.90;;;;;;;;;;5073596;28;20079;-61
2024/02/19 02:55:00;;;;;;;11.68;2.65;;;;;;;;;;5073245;28;20415;-61
2024/02/19 02:57:27;;;;;;;11.48;2.67;;;;;;;;;;5073753;28;20064;-61
2024/02/19 02:59:53;;;;;;;10.90;1.92;;;;;;;;;;5073109;28;20056;-61
2024/02/19 03:02:22;;;;;;;10.55;2.53;;;;;;;;;;5073373;28;20060;-60
2024/02/19 03:04:48;;;;;;;8.30;2.13;;;;;;;;;;5072178;28;20052;-61
2024/02/19 03:07:15;;;;;;;12.05;2.53;;;;;;;;;;5073473;28;20064;-61
2024/02/19 03:09:42;;;;;;;11.20;2.70;;;;;;;;;;5073279;28;20060;-61
2024/02/19 03:12:09;;;;;;;10.80;2.72;;;;;;;;;;5072887;28;20136;-60
2024/02/19 03:14:36;;;;;;;8.13;2.05;;;;;;;;;;5072857;28;20052;-61
2024/02/19 03:17:04;;;;;;;13.70;2.67;;;;;;;;;;5073337;28;20052;-61
2024/02/19 03:19:32;;;;;;;12.05;2.40;;;;;;;;;;5072904;28;20049;-61
2024/02/19 03:21:59;;;;;;;10.38;2.78;;;;;;;;;;5073055;28;20063;-61
2024/02/19 03:24:26;;;;;;;11.25;2.10;;;;;;;;;;5073068;28;20048;-61
2024/02/19 03:26:53;;;;;;;10.35;2.58;;;;;;;;;;5073117;28;20472;-62
2024/02/19 03:29:20;;;;;;;7.88;1.83;;;;;;;;;;5073129;28;20060;-61
2024/02/19 03:31:47;;;;;;;6.82;1.90;;;;;;;;;;5073004;28;20049;-61
2024/02/19 03:34:14;;;;;;;11.25;2.03;;;;;;;;;;5072988;28;20423;-62
2024/02/19 03:36:45;;;;;;;9.23;1.92;;;;;;;;;;5072896;28;20052;-61
2024/02/19 03:39:11;;;;;;;8.35;1.65;;;;;;;;;;5072910;28;20064;-60
2024/02/19 03:41:38;;;;;;;8.07;1.73;;;;;;;;;;5072738;28;20052;-61
2024/02/19 03:44:05;;;;;;;8.77;2.08;;;;;;;;;;5073005;28;20052;-62
2024/02/19 03:46:32;;;;;;;9.65;1.83;;;;;;;;;;5072475;28;20049;-61
2024/02/19 03:48:58;;;;;;;9.00;2.33;;;;;;;;;;5072797;28;20048;-61
2024/02/19 03:51:25;;;;;;;8.65;1.80;;;;;;;;;;5072931;28;20059;-61
2024/02/19 03:53:54;;;;;;;6.97;2.13;;;;;;;;;;5073000;28;20052;-61
2024/02/19 03:56:21;;;;;;;8.60;1.90;;;;;;;;;;5072738;28;20053;-61
2024/02/19 03:58:48;;;;;;;9.52;2.88;;;;;;;;;;5072667;28;20395;-62
2024/02/19 04:01:14;;;;;;;6.90;2.03;;;;;;;;;;5072533;28;20075;-61
2024/02/19 04:03:41;;;;;;;8.05;2.05;;;;;;;;;;5072907;28;20056;-61
2024/02/19 04:06:08;;;;;;;9.77;2.13;;;;;;;;;;5071729;28;20080;-61
2024/02/19 04:08:35;;;;;;;10.27;2.45;;;;;;;;;;5071741;28;20060;-61
2024/02/19 04:11:03;;;;;;;9.43;2.58;;;;;;;;;;5072367;28;20061;-62
2024/02/19 04:13:29;;;;;;;11.02;2.22;;;;;;;;;;5071065;28;20053;-61
2024/02/19 04:15:56;;;;;;;9.50;2.47;;;;;;;;;;5072307;28;20064;-61
2024/02/19 04:18:23;;;;;;;7.22;2.20;;;;;;;;;;5076077;28;20053;-61
2024/02/19 04:20:50;;;;;;;8.95;2.63;;;;;;;;;;5076385;28;20064;-61
2024/02/19 04:23:16;;;;;;;12.65;2.72;;;;;;;;;;5076306;28;20053;-61
2024/02/19 04:25:43;;;;;;;6.38;2.50;;;;;;;;;;5076489;28;20138;-61
2024/02/19 04:28:11;;;;;;;10.15;2.40;;;;;;;;;;5076123;28;20052;-61
2024/02/19 04:30:38;;;;;;;11.00;2.17;;;;;;;;;;5076314;28;20059;-62
2024/02/19 04:33:05;;;;;;;7.38;2.03;;;;;;;;;;5076187;28;20502;-61
2024/02/19 04:35:32;;;;;;;7.22;1.90;;;;;;;;;;5076028;28;20063;-61
2024/02/19 04:37:59;;;;;;;7.20;2.17;;;;;;;;;;5076343;28;20053;-61
2024/02/19 04:40:25;;;;;;;12.68;3.00;;;;;;;;;;5076546;28;20048;-60
2024/02/19 04:42:52;;;;;;;10.30;2.53;;;;;;;;;;5076403;28;20059;-61
2024/02/19 04:45:20;;;;;;;10.48;2.65;;;;;;;;;;5076109;28;20059;-61
2024/02/19 04:47:47;;;;;;;8.77;2.10;;;;;;;;;;5076016;28;20483;-61
2024/02/19 04:50:14;;;;;;;12.40;2.47;;;;;;;;;;5076099;28;20479;-61
2024/02/19 04:52:40;;;;;;;9.90;2.35;;;;;;;;;;5076089;28;20053;-61
2024/02/19 04:55:07;;;;;;;10.10;2.97;;;;;;;;;;5075637;28;20059;-61
2024/02/19 04:57:34;;;;;;;13.30;3.67;;;;;;;;;;5076134;28;20064;-61
2024/02/19 05:00:01;;;;;;;9.95;2.40;;;;;;;;;;5075902;28;20048;-61
2024/02/19 05:02:29;;;;;;;11.32;2.85;;;;;;;;;;5075908;28;20059;-62
2024/02/19 05:04:56;;;;;;;12.18;3.40;;;;;;;;;;5075836;28;20415;-61
2024/02/19 05:07:23;;;;;;;13.52;3.28;;;;;;;;;;5075737;28;20075;-62
2024/02/19 05:09:49;;;;;;;12.50;2.80;;;;;;;;;;5075325;28;20071;-61
2024/02/19 05:12:16;;;;;;;13.13;3.28;;;;;;;;;;5075698;28;20499;-62
2024/02/19 05:14:43;;;;;;;14.45;3.53;;;;;;;;;;5075281;28;20052;-62
2024/02/19 05:17:10;;;;;;;17.63;3.38;;;;;;;;;;5075642;28;20068;-62
2024/02/19 05:19:38;;;;;;;10.02;2.83;;;;;;;;;;5075705;28;20060;-62
2024/02/19 05:22:05;;;;;;;11.15;2.95;;;;;;;;;;5075462;28;20056;-62
2024/02/19 05:24:32;;;;;;;11.13;2.90;;;;;;;;;;5075017;28;20059;-62
2024/02/19 05:26:59;;;;;;;12.63;3.28;;;;;;;;;;5075277;28;20056;-61
2024/02/19 05:29:25;;;;;;;10.45;3.00;;;;;;;;;;5074475;28;20055;-62
2024/02/19 05:31:52;;;;;;;11.23;3.20;;;;;;;;;;5075323;28;20060;-61
2024/02/19 05:34:19;;;;;;;9.98;2.60;;;;;;;;;;5074720;28;20052;-61
2024/02/19 05:36:48;;;;;;;10.98;3.20;;;;;;;;;;5075023;28;20394;-62
2024/02/19 05:39:14;;;;;;;10.13;3.13;;;;;;;;;;5074540;28;20045;-62
2024/02/19 05:41:41;;;;;;;11.35;3.20;;;;;;;;;;5075120;28;20056;-62
2024/02/19 05:44:09;;;;;;;10.80;3.33;;;;;;;;;;5074941;28;20052;-62
2024/02/19 05:46:36;;;;;;;14.65;3.72;;;;;;;;;;5074584;28;20403;-61
2024/02/19 05:49:03;;;;;;;17.65;4.40;;;;;;;;;;5074518;28;20048;-61
2024/02/19 05:51:29;;;;;;;18.50;5.13;;;;;;;;;;5074597;28;20434;-62
2024/02/19 05:53:58;;;;;;;16.10;5.10;;;;;;;;;;5074424;28;20483;-60
2024/02/19 05:56:26;;;;;;;19.02;5.45;;;;;;;;;;5074628;28;20415;-60
2024/02/19 05:58:53;;;;;;;15.98;5.93;;;;;;;;;;5074483;28;20503;-61
2024/02/19 06:01:20;;;;;;;24.70;6.72;;;;;;;;;;5074472;28;20059;-60
2024/02/19 06:03:47;;;;;;;16.05;6.88;;;;;;;;;;5074122;28;20060;-60
2024/02/19 06:06:13;;;;;;;24.40;8.02;;;;;;;;;;5074289;28;20052;-60
2024/02/19 06:08:40;;;;;;;18.92;8.65;;;;;;;;;;5074455;28;20052;-60
2024/02/19 06:11:08;;;;;;;22.17;8.95;;;;;;;;;;5074328;28;20399;-60
2024/02/19 06:13:37;;;;;;;23.23;9.55;;;;;;;;;;5073868;28;20059;-60
2024/02/19 06:16:05;;;;;;;22.92;9.55;;;;;;;;;;5074076;28;20070;-60
2024/02/19 06:18:32;;;;;;;20.63;9.80;;;;;;;;;;5074195;28;20052;-60
2024/02/19 06:20:59;;;;;;;20.52;10.02;;;;;;;;;;5073677;28;20060;-60
2024/02/19 06:23:26;;;;;;;25.27;10.18;;;;;;;;;;5074223;28;20048;-60
2024/02/19 06:25:53;;;;;;;23.52;11.57;;;;;;;;;;5073858;28;20516;-61
2024/02/19 06:28:21;;;;;;;24.35;10.85;;;;;;;;;;5074063;28;20063;-60
2024/02/19 06:30:48;;;;;;;26.73;10.90;;;;;;;;;;5073938;28;20053;-61
2024/02/19 06:33:15;;;;;;;30.65;11.50;;;;;;;;;;5073683;28;20060;-61
2024/02/19 06:35:42;;;;;;;25.88;11.63;;;;;;;;;;5073737;28;20056;-60
2024/02/19 06:38:09;;;;;;;25.40;11.82;;;;;;;;;;5073814;28;20056;-61
2024/02/19 06:40:36;;;;;;;24.58;12.10;;;;;;;;;;5073743;28;20048;-61
2024/02/19 06:43:03;;;;;;;28.58;12.45;;;;;;;;;;5073553;28;20408;-62
2024/02/19 06:45:31;;;;;;;27.55;12.27;;;;;;;;;;5073031;28;20059;-61
2024/02/19 06:47:58;;;;;;;29.35;13.05;;;;;;;;;;5074124;28;20479;-61
2024/02/19 06:50:24;;;;;;;25.65;13.57;;;;;;;;;;5073463;28;20056;-61
2024/02/19 06:52:51;;;;;;;25.77;13.60;;;;;;;;;;5073426;28;20048;-61
2024/02/19 06:55:18;;;;;;;25.70;13.60;;;;;;;;;;5073508;28;20438;-61
2024/02/19 06:57:45;;;;;;;32.53;14.07;;;;;;;;;;5073399;28;20052;-61
2024/02/19 07:00:12;;;;;;;31.73;14.85;;;;;;;;;;5072986;28;20055;-61
2024/02/19 07:02:40;;;;;;;29.92;14.52;;;;;;;;;;5073605;28;20052;-61
2024/02/19 07:05:08;;;;;;;28.38;13.35;;;;;;;;;;5073609;28;20059;-61
2024/02/19 07:07:35;;;;;;;29.25;13.60;;;;;;;;;;5073366;28;20063;-62
2024/02/19 07:10:02;;;;;;;32.42;14.95;;;;;;;;;;5073250;28;20371;-61
2024/02/19 07:12:28;;;;;;;36.72;15.20;;;;;;;;;;5073462;28;20055;-61
2024/02/19 07:14:57;;;;;;;25.92;15.55;;;;;;;;;;5072946;28;20059;-62
2024/02/19 07:17:24;;;;;;;32.10;15.90;;;;;;;;;;5073515;28;20063;-62
2024/02/19 07:19:52;;;;;;;28.95;15.13;;;;;;;;;;5072956;28;20490;-62
2024/02/19 07:22:19;;;;;;;31.70;14.90;;;;;;;;;;5073023;28;20064;-61
2024/02/19 07:24:46;;;;;;;32.75;14.55;;;;;;;;;;5073127;28;20048;-62
2024/02/19 07:27:13;;;;;;;28.35;14.15;;;;;;;;;;5073118;28;20403;-61
2024/02/19 07:29:40;;;;;;;31.55;14.98;;;;;;;;;;5072944;28;20395;-61
2024/02/19 07:32:07;;;;;;;29.90;14.27;;;;;;;;;;5072614;28;20162;-62
2024/02/19 07:34:34;;;;;;;25.48;13.10;;;;;;;;;;5072847;28;20052;-62
2024/02/19 07:37:02;;;;;;;30.98;15.15;;;;;;;;;;5072459;28;20071;-62
2024/02/19 07:39:29;;;;;;;23.02;13.13;;;;;;;;;;5072575;28;20415;-62
2024/02/19 07:41:55;;;;;;;31.73;14.60;;;;;;;;;;5072791;28;20395;-62
2024/02/19 07:44:22;;;;;;;34.30;15.05;;;;;;;;;;5072604;28;20064;-62
2024/02/19 07:46:49;;;;;;;29.67;15.38;;;;;;;;;;5071966;28;20056;-62
2024/02/19 07:49:16;;;;;;;26.63;14.93;;;;;;;;;;5072164;28;20075;-62
2024/02/19 07:51:42;;;;;;;29.10;15.48;;;;;;;;;;5072233;28;20087;-62
2024/02/19 07:54:11;;;;;;;32.17;14.88;;;;;;;;;;5072190;28;20052;-62
2024/02/19 07:56:37;;;;;;;31.77;17.33;;;;;;;;;;5072700;28;20056;-62
2024/02/19 07:59:04;;;;;;;30.42;16.15;;;;;;;;;;5072181;28;20059;-62
2024/02/19 08:01:31;;;;;;;29.80;16.00;;;;;;;;;;5072708;28;20395;-61
2024/02/19 08:03:58;;;;;;;25.55;15.77;;;;;;;;;;5072725;28;20061;-62
2024/02/19 08:06:25;;;;;;;24.48;15.27;;;;;;;;;;5072944;28;20059;-61
2024/02/19 08:08:51;;;;;;;23.67;15.13;;;;;;;;;;5072519;28;20052;-62
2024/02/19 08:11:21;;;;;;;25.98;15.63;;;;;;;;;;5072579;28;20060;-61
2024/02/19 08:13:48;;;;;;;22.23;14.90;;;;;;;;;;5072473;28;20060;-61
2024/02/19 08:16:15;;;;;;;24.02;14.48;;;;;;;;;;5072419;28;20052;-61
2024/02/19 08:18:42;;;;;;;25.63;14.63;;;;;;;;;;5072498;28;20068;-61
2024/02/19 08:21:08;;;;;;;24.48;13.43;;;;;;;;;;5072134;28;20053;-61
2024/02/19 08:23:35;;;;;;;23.98;14.82;;;;;;;;;;5072236;28;20063;-61
2024/02/19 08:26:02;;;;;;;22.88;13.90;;;;;;;;;;5071764;28;20057;-61
2024/02/19 08:28:30;;;;;;;21.35;13.02;;;;;;;;;;5072033;28;20075;-61
2024/02/19 08:30:58;;;;;;;19.42;11.95;;;;;;;;;;5071922;28;20049;-61
2024/02/19 08:33:25;;;;;;;18.38;11.10;;;;;;;;;;5072325;28;20071;-61
2024/02/19 08:35:51;;;;;;;18.15;11.13;;;;;;;;;;5072201;28;20064;-61
2024/02/19 08:38:18;;;;;;;16.88;10.85;;;;;;;;;;5072013;28;20071;-61
2024/02/19 08:40:45;;;;;;;19.95;12.07;;;;;;;;;;5071702;28;20488;-61
2024/02/19 08:43:12;;;;;;;23.00;12.60;;;;;;;;;;5071865;28;20060;-61
2024/02/19 08:45:40;;;;;;;18.95;11.45;;;;;;;;;;5071425;28;20060;-62
2024/02/19 08:48:07;;;;;;;20.27;11.77;;;;;;;;;;5072467;28;20063;-61
2024/02/19 08:50:35;;;;;;;17.65;10.38;;;;;;;;;;5071581;28;20151;-61
2024/02/19 08:53:02;;;;;;;18.83;10.75;;;;;;;;;;5071323;28;20059;-61
2024/02/19 08:55:29;;;;;;;19.17;10.05;;;;;;;;;;5071661;28;20060;-61
2024/02/19 08:57:55;;;;;;;17.65;9.48;;;;;;;;;;5071353;28;20064;-61
2024/02/19 09:00:23;;;;;;;16.70;10.30;;;;;;;;;;5071525;28;20048;-60
2024/02/19 09:02:52;;;;;;;15.35;9.43;;;;;;;;;;5072523;28;20048;-60
2024/02/19 09:05:19;;;;;;;14.95;9.57;;;;;;;;;;5075733;28;20063;-60
2024/02/19 09:07:46;;;;;;;15.15;9.45;;;;;;;;;;5075685;28;20052;-60
2024/02/19 09:10:13;;;;;;;20.17;9.05;;;;;;;;;;5075287;28;20052;-61
2024/02/19 09:12:40;;;;;;;18.08;9.15;;;;;;;;;;5074933;28;20053;-61
2024/02/19 09:15:07;;;;;;;17.27;9.20;;;;;;;;;;5075457;28;20067;-60
2024/02/19 09:17:34;;;;;;;18.13;10.88;;;;;;;;;;5075614;28;20057;-60
2024/02/19 09:20:03;;;;;;;18.95;10.65;;;;;;;;;;5075418;28;20057;-60
2024/02/19 09:22:30;;;;;;;18.42;10.68;;;;;;;;;;5075495;28;20055;-61
2024/02/19 09:24:57;;;;;;;21.05;10.38;;;;;;;;;;5075385;28;20060;-60
2024/02/19 09:27:24;;;;;;;19.13;10.60;;;;;;;;;;5075309;28;20075;-60
2024/02/19 09:29:51;;;;;;;17.13;9.68;;;;;;;;;;5074999;28;20055;-60
2024/02/19 09:32:17;;;;;;;18.73;9.50;;;;;;;;;;5075292;28;20049;-60
2024/02/19 09:34:44;;;;;;;17.77;10.27;;;;;;;;;;5075217;28;20052;-60
2024/02/19 09:37:12;;;;;;;17.80;10.70;;;;;;;;;;5075291;28;20053;-60
2024/02/19 09:39:39;;;;;;;17.42;9.98;;;;;;;;;;5074971;28;20056;-60
2024/02/19 09:42:08;;;;;;;20.45;10.60;;;;;;;;;;5075104;28;20049;-60
2024/02/19 09:44:35;;;;;;;18.90;10.68;;;;;;;;;;5075042;28;20056;-60
2024/02/19 09:47:02;;;;;;;19.88;11.00;;;;;;;;;;5075046;28;20494;-60
2024/02/19 09:49:30;;;;;;;20.33;11.43;;;;;;;;;;5074834;28;20403;-60
2024/02/19 09:51:58;;;;;;;20.55;11.25;;;;;;;;;;5074714;28;20055;-60
2024/02/19 09:54:28;;;;;;;18.05;10.70;;;;;;;;;;5074807;28;20411;-60
2024/02/19 09:56:56;;;;;;;18.05;10.98;;;;;;;;;;5074972;28;20395;-61
2024/02/19 09:59:23;;;;;;;19.02;10.63;;;;;;;;;;5074819;28;20403;-61
2024/02/19 10:01:50;;;;;;;19.02;10.60;;;;;;;;;;5074740;28;20067;-60
2024/02/19 10:04:17;;;;;;;18.73;10.30;;;;;;;;;;5074290;28;20049;-61
2024/02/19 10:06:45;;;;;;;17.35;9.65;;;;;;;;;;5074289;28;20048;-60
2024/02/19 10:09:12;;;;;;;15.25;8.82;;;;;;;;;;5074517;28;20052;-61
2024/02/19 10:11:40;;;;;;;20.52;9.38;;;;;;;;;;5074532;28;20395;-61
2024/02/19 10:14:09;;;;;;;18.05;9.80;;;;;;;;;;5073958;28;20061;-61
2024/02/19 10:16:36;;;;;;;14.23;8.98;;;;;;;;;;5074506;28;20063;-60
2024/02/19 10:19:05;;;;;;;18.50;10.45;;;;;;;;;;5074171;28;20048;-61
2024/02/19 10:21:32;;;;;;;21.27;11.02;;;;;;;;;;5074109;28;20044;-61
2024/02/19 10:23:59;;;;;;;19.40;11.02;;;;;;;;;;5073839;28;20390;-61
2024/02/19 10:26:26;;;;;;;18.17;10.48;;;;;;;;;;5074214;28;20052;-60
2024/02/19 10:28:55;;;;;;;17.00;8.60;;;;;;;;;;5074303;28;20063;-60
2024/02/19 10:31:22;;;;;;;17.08;9.88;;;;;;;;;;5074158;28;20045;-61
2024/02/19 10:33:49;;;;;;;17.40;10.10;;;;;;;;;;5074013;28;20056;-60
2024/02/19 10:36:18;;;;;;;22.58;10.25;;;;;;;;;;5073971;28;20068;-60
2024/02/19 10:38:45;;;;;;;18.20;9.82;;;;;;;;;;5073654;28;20048;-60
2024/02/19 10:41:12;;;;;;;19.67;9.60;;;;;;;;;;5073914;28;20475;-61
2024/02/19 10:43:39;;;;;;;15.43;9.80;;;;;;;;;;5073753;28;20075;-60
2024/02/19 10:46:07;;;;;;;16.48;8.75;;;;;;;;;;5073839;28;20064;-61
2024/02/19 10:48:34;;;;;;;15.23;8.70;;;;;;;;;;5073830;28;20052;-61
2024/02/19 10:51:03;;;;;;;14.57;8.38;;;;;;;;;;5073579;28;20048;-61
2024/02/19 10:53:30;;;;;;;15.45;7.60;;;;;;;;;;5073755;28;20052;-60
2024/02/19 10:56:09;;;;;;;15.57;7.65;;;;;;;;;;5073766;28;20234;-61
2024/02/19 10:58:35;;;;;;;13.32;7.65;;;;;;;;;;5073286;28;20420;-60
2024/02/19 11:01:02;;;;;;;18.02;7.70;;;;;;;;;;5073174;28;20059;-60
2024/02/19 11:03:31;;;;;;;13.60;6.70;;;;;;;;;;5073551;28;20411;-61
2024/02/19 11:06:01;;;;;;;14.75;7.35;;;;;;;;;;5073156;28;20052;-61
2024/02/19 11:08:34;;;;;;;16.00;7.03;;;;;;;;;;5073354;28;20495;-61
2024/02/19 11:11:03;;;;;;;15.35;7.00;;;;;;;;;;5073037;28;20056;-61
2024/02/19 11:13:30;;;;;;;13.13;6.00;;;;;;;;;;5072889;28;20079;-61
2024/02/19 11:15:57;;;;;;;11.95;6.55;;;;;;;;;;5073213;28;20052;-60
2024/02/19 11:18:23;;;;;;;11.10;6.13;;;;;;;;;;5072765;28;20052;-60
2024/02/19 11:20:52;;;;;;;13.38;6.20;;;;;;;;;;5072989;28;20052;-61
2024/02/19 11:23:20;;;;;;;13.52;7.03;;;;;;;;;;5072752;28;20071;-60
2024/02/19 11:25:47;;;;;;;13.70;6.68;;;;;;;;;;5071841;28;20052;-61
2024/02/19 11:28:14;;;;;;;13.02;6.65;;;;;;;;;;5072613;28;20052;-61
2024/02/19 11:30:41;;;;;;;11.88;6.75;;;;;;;;;;5072550;28;20131;-61
2024/02/19 11:33:08;;;;;;;13.00;7.15;;;;;;;;;;5073059;28;20055;-61
2024/02/19 11:35:35;;;;;;;13.10;7.13;;;;;;;;;;5072948;28;20431;-61
2024/02/19 11:38:03;;;;;;;20.92;8.77;;;;;;;;;;5072435;28;20495;-61
2024/02/19 11:40:32;;;;;;;17.75;7.85;;;;;;;;;;5072952;28;20052;-61
2024/02/19 11:43:00;;;;;;;14.82;7.63;;;;;;;;;;5072255;28;20411;-61
2024/02/19 11:45:28;;;;;;;15.02;7.45;;;;;;;;;;5072161;28;20418;-61
2024/02/19 11:47:55;;;;;;;14.23;8.15;;;;;;;;;;5073004;28;20053;-61
2024/02/19 11:50:25;;;;;;;13.57;7.78;;;;;;;;;;5072224;28;20052;-62
2024/02/19 11:52:53;;;;;;;16.60;8.32;;;;;;;;;;5073140;28;20053;-61
2024/02/19 11:55:23;;;;;;;14.15;7.63;;;;;;;;;;5072670;28;20056;-61
2024/02/19 11:57:50;;;;;;;16.17;7.68;;;;;;;;;;5072670;28;20479;-61
2024/02/19 12:00:18;;;;;;;15.02;7.63;;;;;;;;;;5072249;28;20103;-61
2024/02/19 12:02:47;;;;;;;14.05;8.00;;;;;;;;;;5072584;28;20395;-61
2024/02/19 12:05:16;;;;;;;15.75;7.93;;;;;;;;;;5072054;28;20053;-61
2024/02/19 12:07:42;;;;;;;15.68;7.97;;;;;;;;;;5072646;28;20052;-61
2024/02/19 12:10:10;;;;;;;15.23;8.25;;;;;;;;;;5072253;28;20057;-61
2024/02/19 12:12:39;;;;;;;14.15;8.80;;;;;;;;;;5072684;28;20053;-61
2024/02/19 12:15:09;;;;;;;14.52;8.50;;;;;;;;;;5072470;28;20060;-61
2024/02/19 12:17:36;;;;;;;14.52;8.02;;;;;;;;;;5072499;28;20053;-61
2024/02/19 12:20:03;;;;;;;13.35;8.02;;;;;;;;;;5072161;28;20495;-61
2024/02/19 12:22:30;;;;;;;12.13;7.72;;;;;;;;;;5072261;28;20044;-61
2024/02/19 12:24:57;;;;;;;14.30;7.32;;;;;;;;;;5072430;28;20459;-62
2024/02/19 12:27:24;;;;;;;15.68;7.82;;;;;;;;;;5072456;28;20052;-61
2024/02/19 12:29:52;;;;;;;16.08;7.60;;;;;;;;;;5072550;28;20052;-61
2024/02/19 12:32:19;;;;;;;14.50;7.13;;;;;;;;;;5072459;28;20060;-61
2024/02/19 12:34:46;;;;;;;12.90;7.75;;;;;;;;;;5072060;28;20056;-61
2024/02/19 12:37:14;;;;;;;12.90;7.15;;;;;;;;;;5073322;28;20055;-61
2024/02/19 12:39:41;;;;;;;18.60;8.43;;;;;;;;;;5075918;28;20056;-61
2024/02/19 12:42:08;;;;;;;13.73;7.07;;;;;;;;;;5076445;28;20098;-61
2024/02/19 12:44:34;;;;;;;15.15;7.35;;;;;;;;;;5075858;28;20064;-61
2024/02/19 12:47:04;;;;;;;11.30;7.00;;;;;;;;;;5075899;28;20059;-61
2024/02/19 12:49:32;;;;;;;12.95;6.82;;;;;;;;;;5076121;28;20064;-61
2024/02/19 12:51:59;;;;;;;18.23;7.28;;;;;;;;;;5075595;28;20053;-61
2024/02/19 12:54:26;;;;;;;12.52;7.75;;;;;;;;;;5076019;28;20055;-61
2024/02/19 12:56:54;;;;;;;15.40;7.88;;;;;;;;;;5076065;28;20056;-61
2024/02/19 12:59:21;;;;;;;13.05;6.60;;;;;;;;;;5075827;28;20052;-61
2024/02/19 13:01:50;;;;;;;10.25;6.30;;;;;;;;;;5075822;28;20379;-61
2024/02/19 13:04:19;;;;;;;13.35;7.30;;;;;;;;;;5075957;28;20383;-61
2024/02/19 13:06:46;;;;;;;10.27;5.63;;;;;;;;;;5075668;28;20059;-61
2024/02/19 13:09:13;;;;;;;10.57;6.25;;;;;;;;;;5075940;28;20048;-61
2024/02/19 13:11:41;;;;;;;12.82;6.20;;;;;;;;;;5075594;28;20052;-61
2024/02/19 13:14:07;;;;;;;12.48;5.75;;;;;;;;;;5075923;28;20049;-60
2024/02/19 13:16:35;;;;;;;11.07;5.85;;;;;;;;;;5075645;28;20521;-61
2024/02/19 13:19:02;;;;;;;10.30;5.68;;;;;;;;;;5076004;28;20059;-61
2024/02/19 13:21:30;;;;;;;12.57;7.00;;;;;;;;;;5075149;28;20052;-61
2024/02/19 13:23:57;;;;;;;12.93;6.47;;;;;;;;;;5075170;28;20044;-61
2024/02/19 13:26:24;;;;;;;10.95;6.45;;;;;;;;;;5075484;28;20060;-60
2024/02/19 13:28:51;;;;;;;12.45;6.53;;;;;;;;;;5075131;28;20056;-60
2024/02/19 13:31:17;;;;;;;10.65;6.22;;;;;;;;;;5075437;28;20395;-61
2024/02/19 13:33:44;;;;;;;13.35;6.65;;;;;;;;;;5075041;28;20059;-61
2024/02/19 13:36:11;;;;;;;13.63;7.10;;;;;;;;;;5075262;28;20057;-61
2024/02/19 13:38:40;;;;;;;11.75;6.90;;;;;;;;;;5075385;28;20056;-60
2024/02/19 13:41:09;;;;;;;12.57;7.50;;;;;;;;;;5075220;28;20057;-61
2024/02/19 13:43:36;;;;;;;11.73;7.20;;;;;;;;;;5075345;28;20048;-61
2024/02/19 13:46:06;;;;;;;10.35;6.68;;;;;;;;;;5074545;28;20060;-61
2024/02/19 13:48:33;;;;;;;10.88;7.07;;;;;;;;;;5074494;28;20423;-61
2024/02/19 13:51:00;;;;;;;13.93;7.97;;;;;;;;;;5074802;28;20479;-61
2024/02/19 13:53:28;;;;;;;11.73;7.63;;;;;;;;;;5075028;28;20407;-61
2024/02/19 13:55:56;;;;;;;11.70;7.30;;;;;;;;;;5074955;28;20059;-61
2024/02/19 13:58:24;;;;;;;12.70;6.87;;;;;;;;;;5074603;28;20048;-61
2024/02/19 14:00:52;;;;;;;15.10;7.95;;;;;;;;;;5074412;28;20495;-61
2024/02/19 14:03:19;;;;;;;13.70;7.40;;;;;;;;;;5074600;28;20053;-60
2024/02/19 14:05:45;;;;;;;14.20;8.00;;;;;;;;;;5074466;28;20049;-61
2024/02/19 14:08:12;;;;;;;13.00;7.78;;;;;;;;;;5074714;28;20060;-61
2024/02/19 14:10:39;;;;;;;12.07;7.82;;;;;;;;;;5074451;28;20059;-61
2024/02/19 14:13:08;;;;;;;13.52;8.20;;;;;;;;;;5074638;28;20049;-61
2024/02/19 14:15:35;;;;;;;13.38;7.80;;;;;;;;;;5074210;28;20106;-61
2024/02/19 14:18:02;;;;;;;12.15;7.32;;;;;;;;;;5074379;28;20045;-61
2024/02/19 14:20:29;;;;;;;13.90;7.72;;;;;;;;;;5074023;28;20055;-61
2024/02/19 14:22:56;;;;;;;12.10;7.65;;;;;;;;;;5074515;28;20044;-60
2024/02/19 14:25:23;;;;;;;17.08;7.97;;;;;;;;;;5074411;28;20059;-61
2024/02/19 14:27:51;;;;;;;13.13;7.55;;;;;;;;;;5074737;28;20056;-61